Time;durP1;ratioP1;P1;durP2;ratioP2;P2;SDS_P1;SDS_P2;PMS_P1;PMS_P2;Temp;Humidity;BMP_temperature;BMP_pressure;BME280_temperature;BME280_humidity;BME280_pressure;Samples;Min_cycle;Max_cycle;Signal;HPM_P1;HPM_P2
2023/10/20 00:01:32;;;;;;;0.50;0.50;;;7.90;99.90;;;;;;4405162;32;20378;-60
2023/10/20 00:03:58;;;;;;;0.57;0.57;;;7.90;99.90;;;;;;4402632;32;20129;-62
2023/10/20 00:06:23;;;;;;;0.68;0.68;;;7.80;99.90;;;;;;4387622;32;20165;-63
2023/10/20 00:08:49;;;;;;;2.05;0.88;;;7.80;99.90;;;;;;4399834;32;20090;-62
2023/10/20 00:11:15;;;;;;;1.35;0.93;;;7.80;99.90;;;;;;4398629;32;20066;-61
2023/10/20 00:13:40;;;;;;;1.87;0.75;;;7.80;99.90;;;;;;4401745;32;20543;-61
2023/10/20 00:16:06;;;;;;;0.77;0.62;;;7.80;99.90;;;;;;4398839;32;20239;-61
2023/10/20 00:18:32;;;;;;;0.37;0.37;;;7.90;99.90;;;;;;4394670;32;20114;-61
2023/10/20 00:20:57;;;;;;;1.33;1.02;;;7.90;99.90;;;;;;4402740;32;20186;-61
2023/10/20 00:23:23;;;;;;;0.55;0.55;;;7.80;99.90;;;;;;4400949;32;20078;-60
2023/10/20 00:25:49;;;;;;;0.60;0.60;;;7.90;99.90;;;;;;4399059;32;20101;-62
2023/10/20 00:28:14;;;;;;;0.70;0.70;;;7.80;99.90;;;;;;4399318;32;20081;-62
2023/10/20 00:30:41;;;;;;;1.08;0.75;;;7.80;99.90;;;;;;4401045;32;20094;-64
2023/10/20 00:33:06;;;;;;;1.05;0.93;;;7.80;99.90;;;;;;4386046;32;20066;-63
2023/10/20 00:35:32;;;;;;;2.00;0.93;;;7.80;99.90;;;;;;4386531;32;20615;-62
2023/10/20 00:37:58;;;;;;;1.23;1.12;;;7.80;99.90;;;;;;4393598;32;20514;-62
2023/10/20 00:40:24;;;;;;;0.77;0.77;;;7.80;99.90;;;;;;4371434;32;20176;-63
2023/10/20 00:42:51;;;;;;;0.70;0.70;;;7.80;99.90;;;;;;4385528;32;20065;-61
2023/10/20 00:45:16;;;;;;;0.68;0.68;;;7.80;99.90;;;;;;4386850;32;20065;-62
2023/10/20 00:47:44;;;;;;;1.23;1.12;;;7.80;99.90;;;;;;4397622;32;20086;-63
2023/10/20 00:50:13;;;;;;;0.57;0.57;;;7.80;99.90;;;;;;4385831;32;20181;-63
2023/10/20 00:52:41;;;;;;;0.95;0.93;;;7.80;99.90;;;;;;4386594;32;20075;-63
2023/10/20 00:55:08;;;;;;;2.58;1.30;;;7.80;99.90;;;;;;4388657;32;20085;-63
2023/10/20 00:57:35;;;;;;;0.40;0.40;;;7.80;99.90;;;;;;4395299;32;20081;-62
2023/10/20 01:00:03;;;;;;;0.32;0.32;;;7.80;99.90;;;;;;4399718;32;20177;-62
2023/10/20 01:02:30;;;;;;;0.62;0.62;;;7.80;99.90;;;;;;4394613;32;20074;-62
2023/10/20 01:04:57;;;;;;;0.40;0.40;;;7.80;99.90;;;;;;4400357;32;20173;-63
2023/10/20 01:07:24;;;;;;;2.80;1.02;;;7.80;99.90;;;;;;4398393;32;20088;-63
2023/10/20 01:09:50;;;;;;;1.42;1.33;;;7.80;99.90;;;;;;4401106;32;20532;-61
2023/10/20 01:12:15;;;;;;;0.57;0.57;;;7.80;99.90;;;;;;4398031;32;20090;-61
2023/10/20 01:14:41;;;;;;;0.57;0.52;;;7.80;99.90;;;;;;4399346;32;20065;-63
2023/10/20 01:17:09;;;;;;;0.65;0.65;;;7.80;99.90;;;;;;4394445;32;20082;-62
2023/10/20 01:19:37;;;;;;;0.73;0.73;;;7.80;99.90;;;;;;4396451;32;20090;-63
2023/10/20 01:22:03;;;;;;;2.65;0.85;;;7.80;99.90;;;;;;4384261;32;20574;-62
2023/10/20 01:24:29;;;;;;;0.52;0.52;;;7.80;99.90;;;;;;4399818;32;20077;-62
2023/10/20 01:26:55;;;;;;;0.80;0.75;;;7.80;99.90;;;;;;4383916;32;20123;-62
2023/10/20 01:29:20;;;;;;;0.85;0.55;;;7.70;99.90;;;;;;4397702;32;20089;-62
2023/10/20 01:31:46;;;;;;;0.62;0.62;;;7.80;99.90;;;;;;4397702;32;20089;-62
2023/10/20 01:34:11;;;;;;;0.35;0.32;;;7.80;99.90;;;;;;4400319;32;20066;-62
2023/10/20 01:36:37;;;;;;;0.60;0.60;;;7.80;99.90;;;;;;4396693;32;20098;-62
2023/10/20 01:39:04;;;;;;;1.58;0.88;;;7.80;99.90;;;;;;4396403;32;20079;-62
2023/10/20 01:41:31;;;;;;;2.25;1.33;;;7.80;99.90;;;;;;4398873;32;20066;-63
2023/10/20 01:43:56;;;;;;;5.30;1.15;;;7.70;99.90;;;;;;4398722;32;20521;-62
2023/10/20 01:46:22;;;;;;;0.40;0.40;;;7.70;99.90;;;;;;4399419;32;20059;-62
2023/10/20 01:48:47;;;;;;;0.32;0.32;;;7.70;99.90;;;;;;4396104;32;20545;-62
2023/10/20 01:51:12;;;;;;;0.85;0.85;;;7.70;99.90;;;;;;4396531;32;20094;-63
2023/10/20 01:53:38;;;;;;;4.18;1.02;;;7.80;99.90;;;;;;4399826;32;20108;-62
2023/10/20 01:56:03;;;;;;;0.65;0.65;;;7.70;99.90;;;;;;4399973;32;20086;-62
2023/10/20 01:58:29;;;;;;;0.73;0.73;;;7.80;99.90;;;;;;4397021;32;20488;-62
2023/10/20 02:00:54;;;;;;;1.55;1.15;;;7.80;99.90;;;;;;4401482;32;20128;-63
2023/10/20 02:03:20;;;;;;;0.70;0.70;;;7.70;99.90;;;;;;4400691;32;20070;-62
2023/10/20 02:05:46;;;;;;;7.82;2.28;;;7.70;99.90;;;;;;4402348;32;20086;-61
2023/10/20 02:08:11;;;;;;;0.85;0.82;;;7.80;99.90;;;;;;4388422;32;20232;-63
2023/10/20 02:10:37;;;;;;;1.17;1.17;;;7.80;99.90;;;;;;4402038;32;20125;-63
2023/10/20 02:13:03;;;;;;;0.52;0.52;;;7.80;99.90;;;;;;4389868;32;20612;-62
2023/10/20 02:15:29;;;;;;;2.12;1.17;;;7.80;99.90;;;;;;4387905;32;20461;-63
2023/10/20 02:17:56;;;;;;;0.70;0.70;;;7.90;99.90;;;;;;4382701;32;20065;-62
2023/10/20 02:20:24;;;;;;;0.70;0.70;;;7.90;99.90;;;;;;4402645;32;20354;-63
2023/10/20 02:22:50;;;;;;;1.08;0.65;;;7.80;99.90;;;;;;4401063;32;20058;-63
2023/10/20 02:25:16;;;;;;;0.40;0.40;;;7.80;99.90;;;;;;4401571;32;20618;-63
2023/10/20 02:27:42;;;;;;;0.73;0.73;;;7.80;99.90;;;;;;4383351;32;20058;-63
2023/10/20 02:30:10;;;;;;;0.70;0.50;;;7.80;99.90;;;;;;4374949;32;20083;-62
2023/10/20 02:32:36;;;;;;;0.60;0.60;;;7.80;99.90;;;;;;4402414;32;20168;-63
2023/10/20 02:35:01;;;;;;;2.22;1.10;;;7.80;99.90;;;;;;4401511;32;20133;-63
2023/10/20 02:37:27;;;;;;;0.50;0.50;;;7.80;99.90;;;;;;4397870;32;20062;-63
2023/10/20 02:39:53;;;;;;;0.50;0.50;;;7.80;99.90;;;;;;4387750;32;20069;-62
2023/10/20 02:42:18;;;;;;;0.37;0.37;;;7.80;99.90;;;;;;4402941;32;20089;-63
2023/10/20 02:44:44;;;;;;;0.60;0.60;;;7.80;99.90;;;;;;4400662;32;20078;-62
2023/10/20 02:47:09;;;;;;;0.60;0.50;;;7.80;99.90;;;;;;4401204;32;20073;-63
2023/10/20 02:49:35;;;;;;;0.52;0.52;;;7.80;99.90;;;;;;4402336;32;20518;-63
2023/10/20 02:52:01;;;;;;;0.47;0.47;;;7.90;99.90;;;;;;4399093;32;20077;-62
2023/10/20 02:54:26;;;;;;;0.77;0.77;;;7.90;99.90;;;;;;4387178;32;20109;-63
2023/10/20 02:56:56;;;;;;;0.45;0.35;;;7.90;99.90;;;;;;4396140;32;20546;-63
2023/10/20 02:59:23;;;;;;;0.50;0.50;;;7.90;99.90;;;;;;4400450;32;20105;-62
2023/10/20 03:01:48;;;;;;;0.43;0.40;;;7.80;99.90;;;;;;4401847;32;20436;-62
2023/10/20 03:04:14;;;;;;;3.53;0.70;;;7.80;99.90;;;;;;4399347;32;20081;-62
2023/10/20 03:06:41;;;;;;;0.32;0.32;;;7.90;99.90;;;;;;4386590;32;20419;-61
2023/10/20 03:09:07;;;;;;;3.95;0.80;;;7.80;99.90;;;;;;4404089;32;20065;-63
2023/10/20 03:11:32;;;;;;;0.40;0.40;;;7.90;99.90;;;;;;4401972;32;20557;-61
2023/10/20 03:13:58;;;;;;;0.40;0.40;;;7.80;99.90;;;;;;4387365;32;20089;-62
2023/10/20 03:16:23;;;;;;;0.70;0.70;;;7.80;99.90;;;;;;4397622;32;20082;-63
2023/10/20 03:18:49;;;;;;;0.30;0.30;;;7.80;99.90;;;;;;4402081;32;20085;-63
2023/10/20 03:21:14;;;;;;;0.40;0.40;;;7.80;99.90;;;;;;4404155;32;20082;-63
2023/10/20 03:23:43;;;;;;;0.30;0.30;;;7.80;99.90;;;;;;4402080;32;20136;-63
2023/10/20 03:26:11;;;;;;;0.40;0.40;;;7.80;99.90;;;;;;4399240;32;20074;-62
2023/10/20 03:28:37;;;;;;;0.45;0.45;;;7.70;99.90;;;;;;4401307;32;20066;-63
2023/10/20 03:31:02;;;;;;;0.93;0.77;;;7.70;99.90;;;;;;4399497;32;20083;-62
2023/10/20 03:33:28;;;;;;;0.50;0.50;;;7.80;99.90;;;;;;4399939;32;20117;-63
2023/10/20 03:36:03;;;;;;;0.98;0.85;;;7.70;99.90;;;;;;4400354;32;20082;-62
2023/10/20 03:38:29;;;;;;;0.30;0.30;;;7.70;99.90;;;;;;4397878;32;20418;-63
2023/10/20 03:41:04;;;;;;;0.30;0.30;;;7.60;99.90;;;;;;4386751;32;20089;-62
2023/10/20 03:43:29;;;;;;;2.58;0.93;;;7.60;99.90;;;;;;4399754;32;20170;-62
2023/10/20 03:45:56;;;;;;;0.43;0.43;;;7.60;99.90;;;;;;4384297;32;20579;-63
2023/10/20 03:48:23;;;;;;;0.40;0.40;;;7.60;99.90;;;;;;4399633;32;20105;-63
2023/10/20 03:50:49;;;;;;;0.40;0.37;;;7.70;99.90;;;;;;4385882;32;20157;-63
2023/10/20 03:53:18;;;;;;;0.30;0.30;;;7.60;99.90;;;;;;4386018;32;20090;-63
2023/10/20 03:55:44;;;;;;;0.35;0.35;;;7.60;99.90;;;;;;4403926;32;20066;-63
2023/10/20 03:58:11;;;;;;;0.22;0.22;;;7.60;99.90;;;;;;4396951;32;20074;-61
2023/10/20 04:00:41;;;;;;;1.10;0.82;;;7.60;99.90;;;;;;4401910;32;20098;-63
2023/10/20 04:03:08;;;;;;;0.40;0.40;;;7.50;99.90;;;;;;4397609;32;20546;-63
2023/10/20 04:05:33;;;;;;;0.68;0.68;;;7.50;99.90;;;;;;4398473;32;20061;-62
2023/10/20 04:07:58;;;;;;;0.30;0.30;;;7.50;99.90;;;;;;4396899;32;20081;-63
2023/10/20 04:10:24;;;;;;;0.32;0.32;;;7.50;99.90;;;;;;4397884;32;20112;-63
2023/10/20 04:12:50;;;;;;;0.37;0.37;;;7.50;99.90;;;;;;4400241;32;20086;-63
2023/10/20 04:15:16;;;;;;;0.45;0.45;;;7.50;99.90;;;;;;4400126;32;20461;-62
2023/10/20 04:17:44;;;;;;;0.30;0.30;;;7.50;99.90;;;;;;4394415;32;20077;-62
2023/10/20 04:20:15;;;;;;;0.30;0.30;;;7.50;99.90;;;;;;4397886;32;20090;-63
2023/10/20 04:22:43;;;;;;;1.35;0.57;;;7.50;99.90;;;;;;4368696;32;20582;-62
2023/10/20 04:25:12;;;;;;;0.45;0.45;;;7.50;99.90;;;;;;4400333;32;20208;-61
2023/10/20 04:27:50;;;;;;;1.75;1.10;;;7.50;99.90;;;;;;4400156;32;20062;-63
2023/10/20 04:48:20;;;;;;;1.92;0.62;;;7.40;99.90;;;;;;4399201;32;20081;-62
2023/10/20 04:53:12;;;;;;;0.40;0.40;;;7.40;99.90;;;;;;4386177;32;20374;-62
2023/10/20 04:57:52;;;;;;;0.68;0.68;;;7.40;99.90;;;;;;4370934;32;20748;-62
2023/10/20 05:07:52;;;;;;;0.32;0.32;;;7.30;99.90;;;;;;4396892;32;20161;-60
2023/10/20 05:10:19;;;;;;;0.80;0.62;;;7.30;99.90;;;;;;4386510;32;20633;-61
2023/10/20 05:12:45;;;;;;;0.30;0.30;;;7.30;99.90;;;;;;4394914;32;20070;-62
2023/10/20 05:15:12;;;;;;;1.08;0.52;;;7.30;99.90;;;;;;4396863;32;20086;-62
2023/10/20 05:17:38;;;;;;;0.50;0.50;;;7.30;99.90;;;;;;4366964;32;20070;-63
2023/10/20 05:20:05;;;;;;;0.75;0.43;;;7.40;99.90;;;;;;4395408;32;20070;-62
2023/10/20 05:22:32;;;;;;;0.60;0.60;;;7.30;99.90;;;;;;4397164;32;20058;-63
2023/10/20 05:24:57;;;;;;;0.60;0.60;;;7.30;99.90;;;;;;4363201;32;20133;-62
2023/10/20 05:27:24;;;;;;;0.43;0.43;;;7.40;99.90;;;;;;4378962;32;20501;-62
2023/10/20 05:29:50;;;;;;;1.95;1.27;;;7.30;99.90;;;;;;4389568;32;20087;-62
2023/10/20 05:32:17;;;;;;;0.30;0.30;;;7.30;99.90;;;;;;4347955;32;20077;-62
2023/10/20 05:34:44;;;;;;;3.20;0.70;;;7.30;99.90;;;;;;4393466;32;20688;-61
2023/10/20 05:37:09;;;;;;;0.55;0.55;;;7.30;99.90;;;;;;4374657;32;20315;-63
2023/10/20 05:39:35;;;;;;;0.40;0.40;;;7.30;99.90;;;;;;4392541;32;20452;-62
2023/10/20 05:42:04;;;;;;;4.47;1.23;;;7.30;99.90;;;;;;4392595;32;20089;-62
2023/10/20 05:44:31;;;;;;;3.20;0.70;;;7.30;99.90;;;;;;4379346;32;20102;-61
2023/10/20 05:46:57;;;;;;;0.55;0.55;;;7.30;99.90;;;;;;4378940;32;20435;-62
2023/10/20 05:49:22;;;;;;;0.30;0.30;;;7.30;99.90;;;;;;4389145;32;20501;-62
2023/10/20 05:51:51;;;;;;;0.47;0.47;;;7.30;99.90;;;;;;4386729;32;20393;-63
2023/10/20 05:54:17;;;;;;;1.75;0.82;;;7.20;99.90;;;;;;4375593;32;20152;-62
2023/10/20 05:56:42;;;;;;;0.57;0.57;;;7.20;99.90;;;;;;4357312;32;20747;-63
2023/10/20 05:59:08;;;;;;;0.60;0.60;;;7.20;99.90;;;;;;4366179;32;20086;-62
2023/10/20 06:01:33;;;;;;;0.98;0.50;;;7.20;99.90;;;;;;4351214;32;20097;-63
2023/10/20 06:03:59;;;;;;;0.55;0.45;;;7.20;99.90;;;;;;4366649;32;20514;-63
2023/10/20 06:06:24;;;;;;;0.50;0.50;;;7.20;99.90;;;;;;4361753;32;20089;-63
2023/10/20 06:08:50;;;;;;;0.30;0.30;;;7.20;99.90;;;;;;4361616;32;20218;-63
2023/10/20 06:11:15;;;;;;;0.20;0.20;;;7.10;99.90;;;;;;4368462;32;20561;-62
2023/10/20 06:13:41;;;;;;;1.35;0.52;;;7.10;99.90;;;;;;4369466;32;20121;-62
2023/10/20 06:16:08;;;;;;;2.90;0.98;;;7.10;99.90;;;;;;4356634;32;20472;-63
2023/10/20 06:18:35;;;;;;;0.68;0.68;;;7.10;99.90;;;;;;4350446;32;20113;-64
2023/10/20 06:21:01;;;;;;;0.50;0.50;;;7.10;99.90;;;;;;4356932;32;20073;-63
2023/10/20 06:23:27;;;;;;;11.27;0.77;;;7.20;99.90;;;;;;4367770;32;20173;-63
2023/10/20 06:25:52;;;;;;;0.30;0.30;;;7.20;99.90;;;;;;4340068;32;20164;-63
2023/10/20 06:28:18;;;;;;;0.40;0.40;;;7.10;99.90;;;;;;4376216;32;20078;-62
2023/10/20 06:30:44;;;;;;;1.55;1.23;;;7.20;99.90;;;;;;4373737;32;20124;-63
2023/10/20 06:35:49;;;;;;;0.30;0.30;;;7.20;99.90;;;;;;4374210;32;20114;-63
2023/10/20 06:38:17;;;;;;;0.80;0.80;;;7.20;99.90;;;;;;4362409;32;20711;-62
2023/10/20 06:40:43;;;;;;;0.90;0.50;;;7.20;99.90;;;;;;4374057;32;20913;-61
2023/10/20 06:43:08;;;;;;;0.60;0.40;;;7.10;99.90;;;;;;4360702;32;20342;-63
2023/10/20 06:45:34;;;;;;;0.47;0.47;;;7.10;99.90;;;;;;4372103;32;20272;-63
2023/10/20 06:47:59;;;;;;;1.92;0.85;;;7.10;99.90;;;;;;4379614;32;20106;-61
2023/10/20 06:50:25;;;;;;;2.10;0.85;;;7.10;99.90;;;;;;4378038;32;20089;-63
2023/10/20 06:52:53;;;;;;;0.35;0.35;;;7.10;99.90;;;;;;4381615;32;20848;-63
2023/10/20 06:55:19;;;;;;;0.80;0.80;;;7.10;99.90;;;;;;4348423;32;20123;-61
2023/10/20 06:57:44;;;;;;;0.47;0.47;;;7.10;99.90;;;;;;4352595;32;20104;-62
2023/10/20 07:02:35;;;;;;;1.45;0.77;;;7.10;99.90;;;;;;4358656;32;21417;-63
2023/10/20 07:05:01;;;;;;;0.43;0.43;;;7.10;99.90;;;;;;4372743;32;20124;-63
2023/10/20 07:07:27;;;;;;;0.45;0.45;;;7.10;99.90;;;;;;4366573;32;20795;-63
2023/10/20 07:09:54;;;;;;;0.25;0.25;;;7.00;99.90;;;;;;4370003;32;20082;-62
2023/10/20 07:12:19;;;;;;;0.62;0.62;;;7.00;99.90;;;;;;4364529;32;20077;-61
2023/10/20 07:14:45;;;;;;;1.77;1.15;;;7.00;99.90;;;;;;4359544;32;20360;-62
2023/10/20 07:17:11;;;;;;;0.50;0.50;;;7.00;99.90;;;;;;4353272;32;20494;-61
2023/10/20 07:19:37;;;;;;;0.40;0.40;;;7.00;99.90;;;;;;4356975;32;20669;-62
2023/10/20 07:22:02;;;;;;;0.60;0.60;;;7.00;99.90;;;;;;4351020;32;20106;-61
2023/10/20 07:24:29;;;;;;;0.30;0.30;;;7.10;99.90;;;;;;4357557;32;20837;-62
2023/10/20 07:26:55;;;;;;;0.40;0.40;;;7.10;99.90;;;;;;4359296;32;20098;-62
2023/10/20 07:29:20;;;;;;;0.93;0.73;;;7.10;99.90;;;;;;4346823;32;20608;-61
2023/10/20 07:31:47;;;;;;;0.50;0.50;;;7.10;99.90;;;;;;4347651;32;21766;-62
2023/10/20 07:34:13;;;;;;;1.70;1.33;;;7.10;99.90;;;;;;4346421;32;20094;-62
2023/10/20 07:36:39;;;;;;;0.32;0.32;;;7.20;99.90;;;;;;4341838;32;20245;-62
2023/10/20 07:39:05;;;;;;;1.65;1.10;;;7.10;99.90;;;;;;4344291;32;20357;-62
2023/10/20 07:41:30;;;;;;;0.30;0.30;;;7.10;99.90;;;;;;4364514;32;20151;-62
2023/10/20 07:43:56;;;;;;;0.35;0.35;;;7.10;99.90;;;;;;4376362;32;20115;-62
2023/10/20 07:46:22;;;;;;;0.37;0.37;;;7.10;99.90;;;;;;4367087;32;20106;-62
2023/10/20 07:48:47;;;;;;;2.40;0.60;;;7.10;99.90;;;;;;4334362;32;20117;-63
2023/10/20 07:51:13;;;;;;;0.30;0.30;;;7.10;99.90;;;;;;4345443;32;22910;-61
2023/10/20 07:53:38;;;;;;;2.35;1.05;;;7.00;99.90;;;;;;4344575;32;20105;-63
2023/10/20 07:56:04;;;;;;;0.30;0.30;;;7.00;99.90;;;;;;4349753;32;20569;-62
2023/10/20 07:58:31;;;;;;;0.65;0.65;;;7.00;99.90;;;;;;4359367;32;20105;-63
2023/10/20 08:00:56;;;;;;;0.43;0.43;;;7.00;99.90;;;;;;4335577;32;20140;-62
2023/10/20 08:03:23;;;;;;;0.57;0.57;;;7.00;99.90;;;;;;4354110;32;22224;-61
2023/10/20 08:05:48;;;;;;;0.70;0.70;;;7.00;99.90;;;;;;4353021;32;20494;-63
2023/10/20 08:08:14;;;;;;;0.60;0.60;;;7.00;99.90;;;;;;4350800;32;20115;-62
2023/10/20 08:10:39;;;;;;;0.30;0.30;;;7.00;99.90;;;;;;4351736;32;20168;-63
2023/10/20 08:13:05;;;;;;;0.95;0.77;;;6.90;99.90;;;;;;4365159;32;20159;-63
2023/10/20 08:15:36;;;;;;;0.30;0.30;;;6.90;99.90;;;;;;4354805;32;20090;-63
2023/10/20 08:18:01;;;;;;;;;;;6.90;99.90;;;;;;4330709;32;20334;-63
2023/10/20 08:20:27;;;;;;;0.55;0.55;;;6.90;99.90;;;;;;4358685;32;20079;-62
2023/10/20 08:22:52;;;;;;;0.60;0.60;;;6.90;99.90;;;;;;4364148;32;21924;-63
2023/10/20 08:25:18;;;;;;;0.57;0.57;;;6.90;99.90;;;;;;4375650;32;20679;-63
2023/10/20 08:27:47;;;;;;;0.50;0.50;;;7.00;99.90;;;;;;4363812;32;21041;-63
2023/10/20 08:30:13;;;;;;;0.40;0.40;;;7.00;99.90;;;;;;4348798;32;20101;-63
2023/10/20 08:32:39;;;;;;;0.50;0.50;;;7.00;99.90;;;;;;4362689;32;20995;-64
2023/10/20 08:35:07;;;;;;;0.30;0.30;;;6.90;99.90;;;;;;4360108;32;21173;-62
2023/10/20 08:37:33;;;;;;;0.37;0.37;;;6.90;99.90;;;;;;4331384;32;20117;-63
2023/10/20 08:39:59;;;;;;;0.43;0.43;;;6.90;99.90;;;;;;4342942;32;20093;-63
2023/10/20 08:42:24;;;;;;;0.30;0.30;;;6.90;99.90;;;;;;4352020;32;20098;-63
2023/10/20 08:44:50;;;;;;;0.32;0.32;;;6.90;99.90;;;;;;4341475;32;21712;-63
2023/10/20 08:47:17;;;;;;;0.75;0.75;;;6.90;99.90;;;;;;4334782;32;20102;-64
2023/10/20 08:49:44;;;;;;;0.30;0.30;;;6.80;99.90;;;;;;4356360;32;20188;-63
2023/10/20 08:52:12;;;;;;;0.37;0.37;;;6.80;99.90;;;;;;4334446;32;20126;-63
2023/10/20 08:54:37;;;;;;;0.30;0.30;;;6.80;99.90;;;;;;4343215;32;20155;-62
2023/10/20 08:57:03;;;;;;;0.60;0.60;;;6.90;99.90;;;;;;4360400;32;20097;-63
2023/10/20 08:59:29;;;;;;;0.75;0.50;;;6.90;99.90;;;;;;4343125;32;20813;-62
2023/10/20 09:01:56;;;;;;;0.30;0.30;;;6.90;99.90;;;;;;4338731;32;20730;-63
2023/10/20 09:04:22;;;;;;;0.50;0.50;;;7.00;99.90;;;;;;4341937;32;20854;-63
2023/10/20 09:06:48;;;;;;;0.52;0.52;;;6.90;99.90;;;;;;4348055;32;20167;-62
2023/10/20 09:09:15;;;;;;;0.88;0.70;;;6.80;99.90;;;;;;4344083;32;22432;-61
2023/10/20 09:11:41;;;;;;;0.30;0.30;;;6.80;99.90;;;;;;4370825;32;20806;-62
2023/10/20 09:14:06;;;;;;;0.30;0.30;;;6.80;99.90;;;;;;4356644;32;20196;-63
2023/10/20 09:16:34;;;;;;;0.30;0.30;;;6.80;99.90;;;;;;4353360;32;20089;-63
2023/10/20 09:18:59;;;;;;;0.30;0.30;;;6.80;99.90;;;;;;4334694;32;21009;-63
2023/10/20 09:21:28;;;;;;;0.35;0.35;;;6.80;99.90;;;;;;4340112;32;20121;-64
2023/10/20 09:23:57;;;;;;;0.60;0.60;;;6.80;99.90;;;;;;4328889;32;20529;-62
2023/10/20 09:26:24;;;;;;;0.30;0.30;;;6.70;99.90;;;;;;4346155;32;20093;-64
2023/10/20 09:28:53;;;;;;;0.73;0.55;;;6.70;99.90;;;;;;4349101;32;20106;-63
2023/10/20 09:31:19;;;;;;;0.88;0.88;;;6.70;99.90;;;;;;4347769;32;20082;-63
2023/10/20 09:33:44;;;;;;;0.43;0.43;;;6.70;99.90;;;;;;4357900;32;20486;-63
2023/10/20 09:36:11;;;;;;;0.30;0.30;;;6.70;99.90;;;;;;4356338;32;20191;-63
2023/10/20 09:38:37;;;;;;;0.68;0.68;;;6.70;99.90;;;;;;4338187;32;20133;-64
2023/10/20 09:41:22;;;;;;;3.12;1.05;;;6.70;99.90;;;;;;4321127;32;20816;-62
2023/10/20 09:43:52;;;;;;;0.28;0.28;;;6.70;99.90;;;;;;4364726;32;20085;-63
2023/10/20 09:46:38;;;;;;;0.28;0.28;;;6.70;99.90;;;;;;4344133;32;20459;-62
2023/10/20 09:49:14;;;;;;;0.75;0.75;;;6.70;99.90;;;;;;4375941;32;20118;-62
2023/10/20 09:51:42;;;;;;;0.30;0.30;;;6.70;99.90;;;;;;4376967;32;20255;-62
2023/10/20 09:54:08;;;;;;;0.22;0.22;;;6.80;99.90;;;;;;4379100;32;20104;-62
2023/10/20 09:56:34;;;;;;;0.62;0.50;;;6.70;99.90;;;;;;4372989;32;20171;-63
2023/10/20 09:59:00;;;;;;;0.30;0.30;;;6.70;99.90;;;;;;4359321;32;20137;-62
2023/10/20 10:01:25;;;;;;;0.20;0.20;;;6.70;99.90;;;;;;4376023;32;20085;-63
2023/10/20 10:04:00;;;;;;;0.20;0.20;;;6.70;99.90;;;;;;4382144;32;20114;-62
2023/10/20 10:06:26;;;;;;;0.30;0.30;;;6.70;99.90;;;;;;4367784;32;20160;-63
2023/10/20 10:08:53;;;;;;;0.40;0.40;;;6.70;99.90;;;;;;4364353;32;20109;-62
2023/10/20 10:11:28;;;;;;;0.30;0.30;;;6.70;99.90;;;;;;4384449;32;20081;-63
2023/10/20 10:14:01;;;;;;;0.52;0.52;;;6.60;99.90;;;;;;4356181;32;20164;-63
2023/10/20 10:16:27;;;;;;;0.50;0.50;;;6.70;99.90;;;;;;4359738;32;20113;-63
2023/10/20 10:18:56;;;;;;;0.35;0.35;;;6.70;99.90;;;;;;4357859;32;20070;-62
2023/10/20 10:21:26;;;;;;;0.20;0.20;;;6.70;99.90;;;;;;4361800;32;20082;-62
2023/10/20 10:24:09;;;;;;;0.30;0.30;;;6.70;99.90;;;;;;4379806;32;20101;-62
2023/10/20 10:26:49;;;;;;;0.25;0.25;;;6.70;99.90;;;;;;4360970;32;20059;-62
2023/10/20 10:29:14;;;;;;;0.70;0.70;;;6.60;99.90;;;;;;4377088;32;20086;-62
2023/10/20 10:31:41;;;;;;;0.55;0.55;;;6.70;99.90;;;;;;4375299;32;20085;-63
2023/10/20 10:34:06;;;;;;;0.57;0.57;;;6.70;99.90;;;;;;4377787;32;20074;-62
2023/10/20 10:36:48;;;;;;;0.40;0.40;;;6.70;99.90;;;;;;4360013;32;20113;-62
2023/10/20 10:39:24;;;;;;;0.30;0.30;;;6.70;99.90;;;;;;4352232;32;20263;-62
2023/10/20 10:41:52;;;;;;;0.20;0.20;;;6.60;99.90;;;;;;4382999;32;20216;-63
2023/10/20 10:44:19;;;;;;;1.98;1.65;;;6.60;99.90;;;;;;4372467;32;20054;-62
2023/10/20 10:46:46;;;;;;;0.20;0.20;;;6.70;99.90;;;;;;4350402;32;20878;-63
2023/10/20 10:49:11;;;;;;;0.50;0.50;;;6.70;99.90;;;;;;4383354;32;20784;-63
2023/10/20 10:51:52;;;;;;;0.50;0.50;;;6.70;99.90;;;;;;4373027;32;20065;-62
2023/10/20 10:54:18;;;;;;;0.50;0.50;;;6.70;99.90;;;;;;4362202;32;20115;-64
2023/10/20 10:56:45;;;;;;;0.45;0.45;;;6.70;99.90;;;;;;4348075;32;20110;-64
2023/10/20 10:59:11;;;;;;;0.30;0.30;;;6.70;99.90;;;;;;4362286;32;20221;-63
2023/10/20 11:01:39;;;;;;;0.22;0.22;;;6.70;99.90;;;;;;4363310;32;20092;-64
2023/10/20 11:04:08;;;;;;;0.80;0.80;;;6.70;99.90;;;;;;4361465;32;20069;-62
2023/10/20 11:06:37;;;;;;;0.30;0.30;;;6.80;99.90;;;;;;4357991;32;20101;-63
2023/10/20 11:09:06;;;;;;;0.47;0.47;;;6.70;99.90;;;;;;4380651;32;20594;-63
2023/10/20 11:11:38;;;;;;;0.30;0.30;;;6.70;99.90;;;;;;4380457;32;20088;-63
2023/10/20 11:14:03;;;;;;;0.20;0.20;;;6.80;99.90;;;;;;4381085;32;20223;-64
2023/10/20 11:16:29;;;;;;;0.20;0.20;;;6.80;99.90;;;;;;4367380;32;20098;-63
2023/10/20 11:18:55;;;;;;;0.30;0.30;;;6.80;99.90;;;;;;4360482;32;20571;-64
2023/10/20 11:21:20;;;;;;;0.52;0.52;;;6.80;99.90;;;;;;4365811;32;20074;-64
2023/10/20 11:23:49;;;;;;;0.50;0.50;;;6.80;99.90;;;;;;4380501;32;20185;-64
2023/10/20 11:26:17;;;;;;;0.20;0.20;;;6.80;99.90;;;;;;4360222;32;20447;-64
2023/10/20 11:28:44;;;;;;;0.28;0.28;;;6.70;99.90;;;;;;4381157;32;20146;-63
2023/10/20 11:31:09;;;;;;;0.20;0.20;;;6.70;99.90;;;;;;4378744;32;20611;-63
2023/10/20 11:33:35;;;;;;;0.40;0.40;;;6.80;99.90;;;;;;4379588;32;20062;-63
2023/10/20 11:36:00;;;;;;;0.20;0.20;;;6.80;99.90;;;;;;4384505;32;20106;-63
2023/10/20 11:38:27;;;;;;;0.62;0.62;;;6.80;99.90;;;;;;4375249;32;20102;-60
2023/10/20 11:40:53;;;;;;;0.30;0.30;;;6.80;99.90;;;;;;4377421;32;20742;-64
2023/10/20 11:43:19;;;;;;;0.37;0.37;;;6.80;99.90;;;;;;4347849;32;20361;-64
2023/10/20 11:45:45;;;;;;;0.52;0.52;;;6.90;99.90;;;;;;4367910;32;20851;-63
2023/10/20 11:50:42;;;;;;;0.37;0.37;;;6.90;99.90;;;;;;4392045;32;1493189;-62
2023/10/20 11:53:08;;;;;;;0.32;0.32;;;6.90;99.90;;;;;;4422356;32;20238;-62
2023/10/20 11:55:33;;;;;;;0.43;0.43;;;6.80;99.90;;;;;;4430673;32;20092;-63
2023/10/20 11:58:00;;;;;;;0.30;0.30;;;6.80;99.90;;;;;;4415619;32;20117;-64
2023/10/20 12:00:26;;;;;;;0.35;0.35;;;6.90;99.90;;;;;;4404274;32;20192;-63
2023/10/20 12:02:51;;;;;;;0.20;0.20;;;6.80;99.90;;;;;;4409477;32;20109;-64
2023/10/20 12:05:17;;;;;;;1.17;0.50;;;6.80;99.90;;;;;;4409971;32;20120;-63
2023/10/20 12:07:42;;;;;;;0.30;0.30;;;6.90;99.90;;;;;;4410732;32;20089;-63
2023/10/20 12:10:08;;;;;;;0.32;0.32;;;6.90;99.90;;;;;;4413097;32;20088;-63
2023/10/20 12:12:34;;;;;;;0.30;0.30;;;6.90;99.90;;;;;;4415519;32;20479;-63
2023/10/20 12:15:01;;;;;;;0.30;0.30;;;6.90;99.90;;;;;;4413941;32;20129;-64
2023/10/20 12:17:27;;;;;;;0.37;0.37;;;7.00;99.90;;;;;;4410453;32;20176;-63
2023/10/20 12:19:52;;;;;;;0.20;0.20;;;7.00;99.90;;;;;;4412307;32;20084;-63
2023/10/20 12:22:18;;;;;;;0.32;0.32;;;6.90;99.90;;;;;;4409866;32;20084;-65
2023/10/20 12:24:43;;;;;;;0.25;0.25;;;6.90;99.90;;;;;;4410155;32;20089;-61
2023/10/20 12:27:10;;;;;;;0.30;0.30;;;6.90;99.90;;;;;;4403878;32;20089;-64
2023/10/20 12:29:36;;;;;;;0.70;0.70;;;6.90;99.90;;;;;;4414526;32;20177;-65
2023/10/20 12:32:03;;;;;;;0.20;0.20;;;6.90;99.90;;;;;;4406297;32;20085;-62
2023/10/20 12:34:28;;;;;;;0.40;0.40;;;6.80;99.90;;;;;;4407662;32;20061;-62
2023/10/20 12:36:54;;;;;;;0.62;0.62;;;6.80;99.90;;;;;;4407748;32;20106;-61
2023/10/20 12:39:20;;;;;;;0.20;0.20;;;6.80;99.90;;;;;;4415605;32;20096;-63
2023/10/20 12:41:46;;;;;;;0.60;0.60;;;6.90;99.90;;;;;;4421173;32;20456;-63
2023/10/20 12:44:12;;;;;;;0.20;0.20;;;6.80;99.90;;;;;;4416887;32;20073;-63
2023/10/20 12:46:38;;;;;;;0.32;0.32;;;6.80;99.90;;;;;;4419015;32;20076;-62
2023/10/20 12:49:06;;;;;;;0.30;0.30;;;6.80;99.90;;;;;;4422491;32;20144;-63
2023/10/20 12:51:33;;;;;;;0.20;0.20;;;6.80;99.90;;;;;;4422664;32;20104;-62
2023/10/20 12:53:59;;;;;;;0.30;0.30;;;6.80;99.90;;;;;;4421386;32;20074;-61
2023/10/20 12:56:25;;;;;;;0.28;0.28;;;6.80;99.90;;;;;;4420477;32;20105;-62
2023/10/20 12:58:51;;;;;;;0.50;0.50;;;6.80;99.90;;;;;;4406733;32;20159;-61
2023/10/20 13:01:16;;;;;;;0.35;0.35;;;6.80;99.90;;;;;;4421667;32;20579;-62
2023/10/20 13:03:42;;;;;;;0.20;0.20;;;6.80;99.90;;;;;;4415617;32;20057;-61
2023/10/20 13:06:07;;;;;;;0.20;0.20;;;6.90;99.90;;;;;;4415627;32;20151;-61
2023/10/20 13:08:33;;;;;;;0.30;0.30;;;6.80;99.90;;;;;;4413629;32;20088;-60
2023/10/20 13:10:58;;;;;;;0.80;0.55;;;6.80;99.90;;;;;;4393812;32;20066;-63
2023/10/20 13:13:24;;;;;;;0.30;0.30;;;6.80;99.90;;;;;;4409933;32;20086;-61
2023/10/20 13:15:50;;;;;;;0.30;0.30;;;6.80;99.90;;;;;;4415298;32;20410;-61
2023/10/20 13:18:15;;;;;;;0.52;0.52;;;6.70;99.90;;;;;;4407835;32;20165;-60
2023/10/20 13:20:43;;;;;;;0.30;0.30;;;6.80;99.90;;;;;;4414185;32;20118;-60
2023/10/20 13:23:09;;;;;;;0.30;0.30;;;6.80;99.90;;;;;;4412271;32;20537;-60
2023/10/20 13:25:34;;;;;;;0.40;0.40;;;6.80;99.90;;;;;;4413920;32;20120;-60
2023/10/20 13:28:05;;;;;;;0.30;0.30;;;6.80;99.90;;;;;;4413103;32;20529;-61
2023/10/20 13:30:31;;;;;;;0.20;0.20;;;6.80;99.90;;;;;;4415489;32;20073;-60
2023/10/20 13:32:56;;;;;;;0.20;0.20;;;6.70;99.90;;;;;;4414622;32;20568;-61